Hlavní strana
METAR-TAF:

METAR-TAF

Letiště :

Letecká základna

Linköping, Švédsko

zeměpisná šířka: 58-24N, zeměpisná délka: 015-31E, výška: 93 m

Aktuální stav počasí

Zpráva byla vytvořena před 12 minutami, v 06:20 UTC
Jižní vítr 7 kt
Teplota 1°C
Vlhkost vzduchu 93%
Tlak 999 hPa
Viditelnost 10 km a více

METAR: ESCF 290620Z AUTO 19007KT 9999 OVC005/// 01/00 Q0999

Čas: 07:32 (06:32 UTC)

Předpověď počasí

Zpráva byla vytvořena před 20 hodinami a 45 minutami, v 09:47 UTC
Předpověď platná od 28 v 09 UTC do 28 v 14 UTC
Jihozápadní vítr 3 kt
Viditelnost: 0500 m
ve výšce 300 ft
mrznoucí mlha
Změna
od 28 v 09 UTC do 28 v 11 UTC
Viditelnost 10 km a více
Polojasno ve výšce 2000 ft
Pravděpodobnost 40%
od 28 v 09 UTC do 28 v 12 UTC
sněhová zrna
Pravděpodobnost 40%
od 28 v 11 UTC do 28 v 12 UTC
Oblačno až skoro zataženo ve výšce 600 ft

TAF: ESCF 280947Z 2809/2814 22003KT 0500 FZFG VV003 BECMG 2809/2811 9999 NSW SCT020 PROB40 2809/2812 SG PROB40 2811/2812 BKN006 RMK MIL

Stav a předpovědi počasí z více než 4 000 letišť (zprávy METAR a TAF).

Červené a žluté tečky na mapě představují dostupné meteorologické stanice.

Když kurzor umístíte na tečku, zobrazí se název stanice.

Pak kliknutím zobrazíte stav a předpověď počasí.

Chcete-li změnit mapu, kliknutím na zelené tlačítko se znaménkem +mapu přiblížíte, kliknutím na zelené tlačítko se znaménkem – mapu oddálíte a kliknutím na zelené šipky přejdete na sousední mapy.


METAR-TAF: